createdAt,value
2023-01-08T00:00:34.346Z,4.84
2023-01-08T00:01:34.116Z,4.84
2023-01-08T00:02:34.517Z,4.9
2023-01-08T00:03:34.682Z,4.94
2023-01-08T00:04:34.105Z,4.83
2023-01-08T00:05:34.118Z,4.83
2023-01-08T00:06:35.726Z,4.86
2023-01-08T00:07:34.131Z,4.76
2023-01-08T00:08:37.208Z,4.87
2023-01-08T00:09:34.128Z,4.86
2023-01-08T00:10:34.240Z,4.89
2023-01-08T00:11:34.256Z,4.78
2023-01-08T00:12:34.163Z,4.79
2023-01-08T00:13:34.271Z,4.75
2023-01-08T00:14:34.130Z,4.76
2023-01-08T00:15:34.274Z,4.82
2023-01-08T00:16:34.440Z,4.75
2023-01-08T00:17:34.192Z,4.76
2023-01-08T00:18:34.144Z,4.76
2023-01-08T00:19:37.213Z,4.79
2023-01-08T00:20:34.186Z,4.74
2023-01-08T00:21:34.179Z,4.74
2023-01-08T00:22:34.154Z,4.75
2023-01-08T00:23:34.194Z,4.78
2023-01-08T00:24:37.312Z,4.76
2023-01-08T00:25:34.135Z,4.78
2023-01-08T00:26:34.270Z,4.7
2023-01-08T00:27:34.320Z,4.7
2023-01-08T00:28:34.328Z,4.84
2023-01-08T00:29:34.174Z,4.63
2023-01-08T00:30:37.425Z,4.67
2023-01-08T00:31:34.294Z,4.67
2023-01-08T00:32:34.248Z,4.6
2023-01-08T00:33:34.179Z,4.66
2023-01-08T00:34:34.164Z,4.64
2023-01-08T00:35:37.234Z,4.71
2023-01-08T00:36:34.190Z,4.58
2023-01-08T00:37:34.225Z,4.56
2023-01-08T00:38:34.207Z,4.49
2023-01-08T00:39:34.181Z,4.49
2023-01-08T00:40:34.247Z,4.45
2023-01-08T00:41:37.305Z,4.49
2023-01-08T00:42:34.210Z,4.61
2023-01-08T00:43:34.355Z,4.56
2023-01-08T00:44:34.186Z,4.58
2023-01-08T00:45:34.533Z,4.6
2023-01-08T00:46:37.077Z,4.57
2023-01-08T00:47:34.275Z,4.56
2023-01-08T00:48:34.198Z,4.56
2023-01-08T00:49:34.205Z,4.58
2023-01-08T00:50:34.273Z,4.53
2023-01-08T00:51:34.220Z,4.63
2023-01-08T00:52:34.274Z,4.6
2023-01-08T00:53:34.224Z,4.66
2023-01-08T00:54:34.213Z,4.57
2023-01-08T00:55:34.220Z,4.57
2023-01-08T00:56:34.223Z,4.5
2023-01-08T00:57:37.461Z,4.5
2023-01-08T00:58:34.244Z,4.48
2023-01-08T00:59:34.346Z,4.57
2023-01-08T01:00:34.237Z,4.57
2023-01-08T01:01:34.904Z,4.6
2023-01-08T01:02:34.340Z,4.6
2023-01-08T01:03:34.272Z,4.57
2023-01-08T01:04:34.384Z,4.56
2023-01-08T01:05:34.258Z,4.49
2023-01-08T01:06:34.271Z,4.5
2023-01-08T01:07:34.284Z,4.5
2023-01-08T01:08:37.395Z,4.5
2023-01-08T01:09:34.239Z,4.53
2023-01-08T01:10:34.241Z,4.4
2023-01-08T01:11:34.237Z,4.39
2023-01-08T01:12:34.260Z,4.4
2023-01-08T01:13:34.258Z,4.32
2023-01-08T01:14:34.297Z,4.32
2023-01-08T01:15:34.363Z,4.28
2023-01-08T01:16:34.399Z,4.34
2023-01-08T01:17:34.501Z,4.27
2023-01-08T01:18:34.405Z,4.18
2023-01-08T01:19:37.006Z,4.25
2023-01-08T01:20:34.250Z,4.28
2023-01-08T01:21:34.245Z,4.31
2023-01-08T01:22:34.243Z,4.34
2023-01-08T01:23:34.272Z,4.3
2023-01-08T01:24:34.228Z,4.32
2023-01-08T01:25:34.237Z,4.3
2023-01-08T01:26:34.265Z,4.09
2023-01-08T01:27:34.249Z,4.2
2023-01-08T01:28:34.258Z,4.21
2023-01-08T01:29:34.394Z,4.31
2023-01-08T01:30:37.270Z,4.14
2023-01-08T01:31:34.262Z,4.18
2023-01-08T01:32:34.283Z,4.25
2023-01-08T01:33:34.274Z,4.18
2023-01-08T01:34:34.393Z,4.21
2023-01-08T01:35:34.263Z,4.24
2023-01-08T01:36:34.277Z,4.2
2023-01-08T01:37:34.261Z,4.2
2023-01-08T01:38:34.283Z,4.16
2023-01-08T01:39:34.459Z,4.14
2023-01-08T01:40:34.262Z,4.22
2023-01-08T01:41:34.338Z,4.09
2023-01-08T01:42:34.302Z,4.2
2023-01-08T01:43:34.273Z,4.24
2023-01-08T01:44:34.255Z,4.13
2023-01-08T01:45:34.657Z,4.2
2023-01-08T01:46:34.420Z,4.25
2023-01-08T01:47:34.325Z,4.34
2023-01-08T01:48:37.019Z,4.34
2023-01-08T01:49:34.299Z,4.34
2023-01-08T01:50:34.444Z,4.25
2023-01-08T01:51:34.282Z,4.3
2023-01-08T01:52:34.283Z,4.2
2023-01-08T01:53:34.298Z,4.24
2023-01-08T01:54:37.350Z,4.28
2023-01-08T01:55:34.279Z,4.14
2023-01-08T01:56:34.294Z,4.27
2023-01-08T01:57:34.288Z,4.14
2023-01-08T01:58:34.355Z,4.25
2023-01-08T01:59:34.365Z,4.18
2023-01-08T02:00:34.306Z,4.16
2023-01-08T02:01:34.908Z,4.13
2023-01-08T02:02:37.469Z,4.07
2023-01-08T02:03:34.292Z,4.06
2023-01-08T02:04:34.312Z,4.03
2023-01-08T02:05:34.316Z,4.03
2023-01-08T02:06:34.464Z,4.13
2023-01-08T02:07:34.324Z,4.07
2023-01-08T02:08:34.327Z,4.12
2023-01-08T02:09:34.326Z,4.07
2023-01-08T02:10:34.311Z,4.12
2023-01-08T02:11:34.320Z,4.18
2023-01-08T02:12:34.392Z,4.12
2023-01-08T02:13:38.523Z,4.13
2023-01-08T02:14:34.328Z,4.14
2023-01-08T02:15:34.337Z,4.02
2023-01-08T02:16:34.476Z,4.02
2023-01-08T02:17:34.471Z,4.13
2023-01-08T02:18:34.521Z,4.24
2023-01-08T02:19:34.443Z,4.14
2023-01-08T02:20:34.347Z,4.14
2023-01-08T02:21:34.367Z,4
2023-01-08T02:22:34.464Z,4.04
2023-01-08T02:23:34.350Z,4.14
2023-01-08T02:24:37.166Z,3.89
2023-01-08T02:25:34.351Z,4.03
2023-01-08T02:26:34.352Z,4.06
2023-01-08T02:27:34.381Z,4.12
2023-01-08T02:28:34.362Z,4.21
2023-01-08T02:29:34.406Z,4.14
2023-01-08T02:30:34.616Z,4.1
2023-01-08T02:31:34.409Z,4.1
2023-01-08T02:32:34.351Z,4.04
2023-01-08T02:33:34.497Z,4.1
2023-01-08T02:34:34.459Z,4.14
2023-01-08T02:35:37.121Z,4.13
2023-01-08T02:36:34.425Z,4.13
2023-01-08T02:37:34.369Z,4.06
2023-01-08T02:38:34.517Z,4.09
2023-01-08T02:39:34.384Z,4.1
2023-01-08T02:40:35.393Z,4.07
2023-01-08T02:41:34.365Z,4.04
2023-01-08T02:42:34.368Z,4.14
2023-01-08T02:43:34.380Z,4.1
2023-01-08T02:44:34.380Z,3.91
2023-01-08T02:45:34.385Z,3.99
2023-01-08T02:46:37.588Z,4.07
2023-01-08T02:47:34.383Z,4.1
2023-01-08T02:48:35.410Z,4.13
2023-01-08T02:49:34.500Z,4.07
2023-01-08T02:50:34.412Z,4.04
2023-01-08T02:51:37.402Z,4.07
2023-01-08T02:52:34.384Z,4.2
2023-01-08T02:53:34.439Z,4.07
2023-01-08T02:54:34.578Z,4.12
2023-01-08T02:55:34.422Z,4.06
2023-01-08T02:56:34.455Z,4.21
2023-01-08T02:57:37.188Z,4.14
2023-01-08T02:58:34.419Z,4.14
2023-01-08T02:59:34.414Z,4.18
2023-01-08T03:00:34.403Z,4.27
2023-01-08T03:01:35.069Z,4.22
2023-01-08T03:02:37.700Z,4.16
2023-01-08T03:03:34.403Z,4.1
2023-01-08T03:04:34.610Z,4.09
2023-01-08T03:05:34.423Z,4.18
2023-01-08T03:06:34.547Z,4.14
2023-01-08T03:07:34.412Z,4.07
2023-01-08T03:08:37.317Z,4.07
2023-01-08T03:09:34.412Z,4.21
2023-01-08T03:10:34.580Z,4.18
2023-01-08T03:11:34.493Z,4.25
2023-01-08T03:12:34.418Z,4.14
2023-01-08T03:13:36.299Z,4.14
2023-01-08T03:14:34.427Z,4.16
2023-01-08T03:15:34.410Z,4.18
2023-01-08T03:16:34.816Z,4.16
2023-01-08T03:17:34.451Z,4.2
2023-01-08T03:18:34.519Z,4.07
2023-01-08T03:19:37.199Z,4.13
2023-01-08T03:20:34.515Z,4.1
2023-01-08T03:21:34.604Z,4.13
2023-01-08T03:22:34.599Z,4.22
2023-01-08T03:23:34.476Z,4.2
2023-01-08T03:24:37.318Z,4.13
2023-01-08T03:25:34.520Z,4.21
2023-01-08T03:26:34.583Z,4.24
2023-01-08T03:27:34.464Z,4.22
2023-01-08T03:28:34.541Z,4.16
2023-01-08T03:29:34.461Z,4.18
2023-01-08T03:30:34.649Z,4.2
2023-01-08T03:31:34.493Z,4.2
2023-01-08T03:32:34.461Z,4.21
2023-01-08T03:33:34.491Z,4.16
2023-01-08T03:34:34.490Z,4.2
2023-01-08T03:35:37.513Z,4.09
2023-01-08T03:36:34.559Z,4.07
2023-01-08T03:37:34.609Z,4.21
2023-01-08T03:38:34.650Z,4.22
2023-01-08T03:39:34.554Z,4.14
2023-01-08T03:40:34.528Z,4.13
2023-01-08T03:41:34.479Z,4.24
2023-01-08T03:42:34.614Z,4.18
2023-01-08T03:43:34.495Z,4.24
2023-01-08T03:44:34.618Z,4.13
2023-01-08T03:45:34.489Z,4.13
2023-01-08T03:46:38.012Z,4.1
2023-01-08T03:47:34.487Z,4.14
2023-01-08T03:48:34.518Z,4.1
2023-01-08T03:49:34.490Z,4.07
2023-01-08T03:50:34.784Z,4.12
2023-01-08T03:51:34.658Z,4.18
2023-01-08T03:52:34.490Z,4.18
2023-01-08T03:53:34.972Z,4.12
2023-01-08T03:54:34.653Z,4.22
2023-01-08T03:55:34.603Z,4.06
2023-01-08T03:56:34.474Z,4.13
2023-01-08T03:57:37.572Z,4.13
2023-01-08T03:58:34.653Z,4.14
2023-01-08T03:59:34.480Z,4.28
2023-01-08T04:00:34.482Z,4.2
2023-01-08T04:01:34.887Z,4.13
2023-01-08T04:02:34.980Z,4.16
2023-01-08T04:03:34.548Z,4.14
2023-01-08T04:04:34.641Z,4.1
2023-01-08T04:05:34.499Z,4.14
2023-01-08T04:06:34.515Z,4.13
2023-01-08T04:07:34.515Z,4.14
2023-01-08T04:08:34.617Z,4.32
2023-01-08T04:09:34.732Z,4.09
2023-01-08T04:10:34.670Z,4.18
2023-01-08T04:11:34.491Z,4.25
2023-01-08T04:12:34.530Z,4.3
2023-01-08T04:13:34.540Z,4.28
2023-01-08T04:14:34.617Z,4.24
2023-01-08T04:15:34.756Z,4.25
2023-01-08T04:16:34.525Z,4.3
2023-01-08T04:17:34.655Z,4.3
2023-01-08T04:18:34.549Z,4.21
2023-01-08T04:19:34.525Z,4.13
2023-01-08T04:20:34.526Z,4.2
2023-01-08T04:21:34.542Z,4.16
2023-01-08T04:22:34.589Z,4.13
2023-01-08T04:23:35.567Z,4.18
2023-01-08T04:24:34.524Z,4.22
2023-01-08T04:25:34.643Z,4.22
2023-01-08T04:26:34.674Z,4.27
2023-01-08T04:27:34.555Z,4.24
2023-01-08T04:28:34.610Z,4.27
2023-01-08T04:29:37.705Z,4.25
2023-01-08T04:30:34.663Z,4.32
2023-01-08T04:31:34.675Z,4.25
2023-01-08T04:32:34.542Z,4.24
2023-01-08T04:33:34.573Z,4.24
2023-01-08T04:34:34.513Z,4.27
2023-01-08T04:35:34.631Z,4.22
2023-01-08T04:36:34.575Z,4.38
2023-01-08T04:37:34.557Z,4.34
2023-01-08T04:38:34.548Z,4.4
2023-01-08T04:39:34.587Z,4.31
2023-01-08T04:40:37.768Z,4.31
2023-01-08T04:41:34.538Z,4.25
2023-01-08T04:42:34.672Z,4.31
2023-01-08T04:43:34.580Z,4.27
2023-01-08T04:44:34.568Z,4.21
2023-01-08T04:45:34.561Z,4.18
2023-01-08T04:46:34.859Z,4.18
2023-01-08T04:47:34.581Z,4.22
2023-01-08T04:48:34.604Z,4.3
2023-01-08T04:49:34.593Z,4.34
2023-01-08T04:50:34.648Z,4.27
2023-01-08T04:51:37.595Z,4.36
2023-01-08T04:52:34.578Z,4.4
2023-01-08T04:53:35.025Z,4.4
2023-01-08T04:54:34.611Z,4.36
2023-01-08T04:55:34.578Z,4.31
2023-01-08T04:56:34.725Z,4.39
2023-01-08T04:57:34.623Z,4.42
2023-01-08T04:58:34.729Z,4.4
2023-01-08T04:59:35.608Z,4.56
2023-01-08T05:00:34.769Z,4.48
2023-01-08T05:01:35.078Z,4.56
2023-01-08T05:02:38.408Z,4.48
2023-01-08T05:03:34.869Z,4.45
2023-01-08T05:04:34.639Z,4.57
2023-01-08T05:05:34.596Z,4.49
2023-01-08T05:06:34.658Z,4.36
2023-01-08T05:07:34.582Z,4.36
2023-01-08T05:08:34.623Z,4.38
2023-01-08T05:09:34.603Z,4.36
2023-01-08T05:10:34.626Z,4.39
2023-01-08T05:11:34.650Z,4.43
2023-01-08T05:12:34.791Z,4.46
2023-01-08T05:13:37.708Z,4.56
2023-01-08T05:14:34.741Z,4.5
2023-01-08T05:15:34.838Z,4.57
2023-01-08T05:16:34.610Z,4.49
2023-01-08T05:17:34.627Z,4.46
2023-01-08T05:18:37.613Z,4.48
2023-01-08T05:19:34.620Z,4.5
2023-01-08T05:20:34.635Z,4.4
2023-01-08T05:21:34.628Z,4.39
2023-01-08T05:22:34.655Z,4.45
2023-01-08T05:23:34.641Z,4.36
2023-01-08T05:24:37.653Z,4.32
2023-01-08T05:25:35.662Z,4.4
2023-01-08T05:26:34.625Z,4.38
2023-01-08T05:27:34.624Z,4.46
2023-01-08T05:28:34.753Z,4.53
2023-01-08T05:29:37.522Z,4.49
2023-01-08T05:30:34.662Z,4.48
2023-01-08T05:31:34.856Z,4.58
2023-01-08T05:32:34.626Z,4.48
2023-01-08T05:33:34.659Z,4.49
2023-01-08T05:34:34.779Z,4.58
2023-01-08T05:35:37.493Z,4.52
2023-01-08T05:36:34.670Z,4.43
2023-01-08T05:37:34.635Z,4.45
2023-01-08T05:38:34.627Z,4.46
2023-01-08T05:39:34.658Z,4.43
2023-01-08T05:40:37.667Z,4.43
2023-01-08T05:41:34.642Z,4.45
2023-01-08T05:42:34.663Z,4.46
2023-01-08T05:43:34.671Z,4.48
2023-01-08T05:44:34.764Z,4.53
2023-01-08T05:45:34.770Z,4.6
2023-01-08T05:46:37.909Z,4.67
2023-01-08T05:47:34.721Z,4.71
2023-01-08T05:48:34.657Z,4.67
2023-01-08T05:49:34.669Z,4.83
2023-01-08T05:50:34.808Z,4.94
2023-01-08T05:51:37.525Z,4.82
2023-01-08T05:52:34.680Z,4.84
2023-01-08T05:53:34.682Z,4.84
2023-01-08T05:54:34.673Z,4.98
2023-01-08T05:55:34.669Z,4.9
2023-01-08T05:56:34.657Z,4.92
2023-01-08T05:57:34.670Z,5.02
2023-01-08T05:58:34.675Z,4.98
2023-01-08T05:59:34.667Z,4.97
2023-01-08T06:00:34.792Z,5.18
2023-01-08T06:01:35.030Z,5.15
2023-01-08T06:02:37.595Z,5.16
2023-01-08T06:03:34.706Z,5.16
2023-01-08T06:04:34.887Z,5.12
2023-01-08T06:05:34.679Z,5.16
2023-01-08T06:06:34.854Z,5.18
2023-01-08T06:07:34.688Z,5.15
2023-01-08T06:08:34.738Z,5.18
2023-01-08T06:09:34.705Z,5.22
2023-01-08T06:10:34.750Z,5.18
2023-01-08T06:11:34.701Z,5.22
2023-01-08T06:12:34.725Z,5.2
2023-01-08T06:13:37.779Z,5.2
2023-01-08T06:14:34.730Z,5.13
2023-01-08T06:15:34.873Z,5.28
2023-01-08T06:16:34.823Z,5.19
2023-01-08T06:17:34.966Z,5.25
2023-01-08T06:18:34.727Z,5.25
2023-01-08T06:19:34.772Z,5.25
2023-01-08T06:20:34.742Z,5.16
2023-01-08T06:21:34.734Z,5.29
2023-01-08T06:22:36.863Z,5.33
2023-01-08T06:23:34.722Z,5.25
2023-01-08T06:24:37.871Z,5.29
2023-01-08T06:25:34.728Z,5.36
2023-01-08T06:26:34.719Z,5.33
2023-01-08T06:27:34.716Z,5.37
2023-01-08T06:28:34.740Z,5.33
2023-01-08T06:29:34.757Z,5.31
2023-01-08T06:30:34.756Z,5.37
2023-01-08T06:31:35.019Z,5.33
2023-01-08T06:32:34.853Z,5.36
2023-01-08T06:33:34.854Z,5.34
2023-01-08T06:34:34.755Z,5.37
2023-01-08T06:35:34.718Z,5.4
2023-01-08T06:36:34.762Z,5.41
2023-01-08T06:37:35.764Z,5.47
2023-01-08T06:38:34.913Z,5.46
2023-01-08T06:39:34.758Z,5.38
2023-01-08T06:40:34.735Z,5.52
2023-01-08T06:41:34.732Z,5.49
2023-01-08T06:42:34.740Z,5.54
2023-01-08T06:43:38.428Z,5.44
2023-01-08T06:44:34.866Z,5.54
2023-01-08T06:45:34.731Z,5.55
2023-01-08T06:46:34.956Z,5.52
2023-01-08T06:47:34.783Z,5.59
2023-01-08T06:48:34.872Z,5.56
2023-01-08T06:49:34.904Z,5.61
2023-01-08T06:50:34.775Z,5.61
2023-01-08T06:51:34.755Z,5.61
2023-01-08T06:52:34.773Z,5.49
2023-01-08T06:53:34.805Z,5.58
2023-01-08T06:54:34.935Z,5.59
2023-01-08T06:55:34.765Z,5.52
2023-01-08T06:56:54.705Z,5.64
2023-01-08T06:57:34.752Z,5.58
2023-01-08T06:58:34.780Z,5.62
2023-01-08T06:59:34.935Z,5.61
2023-01-08T07:00:34.967Z,5.7
2023-01-08T07:01:35.245Z,5.59
2023-01-08T07:02:36.026Z,5.62
2023-01-08T07:03:35.137Z,5.64
2023-01-08T07:04:34.936Z,5.72
2023-01-08T07:05:34.914Z,5.62
2023-01-08T07:06:34.806Z,5.73
2023-01-08T07:07:37.620Z,5.72
2023-01-08T07:08:34.785Z,5.7
2023-01-08T07:09:34.830Z,5.77
2023-01-08T07:10:35.017Z,5.73
2023-01-08T07:11:34.798Z,5.8
2023-01-08T07:12:34.884Z,5.73
2023-01-08T07:13:34.836Z,5.84
2023-01-08T07:14:34.806Z,5.8
2023-01-08T07:15:34.801Z,5.8
2023-01-08T07:16:34.843Z,5.77
2023-01-08T07:17:34.808Z,5.8
2023-01-08T07:18:37.885Z,5.8
2023-01-08T07:19:34.823Z,5.83
2023-01-08T07:20:34.998Z,5.79
2023-01-08T07:21:35.121Z,5.83
2023-01-08T07:22:34.801Z,5.95
2023-01-08T07:23:34.816Z,5.81
2023-01-08T07:24:34.859Z,5.73
2023-01-08T07:25:34.808Z,5.81
2023-01-08T07:26:34.951Z,5.77
2023-01-08T07:27:34.821Z,5.83
2023-01-08T07:28:34.814Z,5.9
2023-01-08T07:29:37.862Z,5.81
2023-01-08T07:30:35.488Z,6.01
2023-01-08T07:31:34.978Z,5.94
2023-01-08T07:32:34.867Z,5.87
2023-01-08T07:33:34.838Z,5.91
2023-01-08T07:34:35.456Z,5.81
2023-01-08T07:35:35.832Z,5.77
2023-01-08T07:36:34.968Z,5.87
2023-01-08T07:37:35.958Z,5.83
2023-01-08T07:38:34.887Z,5.8
2023-01-08T07:39:34.850Z,5.87
2023-01-08T07:40:39.330Z,5.9
2023-01-08T07:41:34.829Z,5.83
2023-01-08T07:42:34.951Z,5.81
2023-01-08T07:43:34.860Z,5.87
2023-01-08T07:44:34.861Z,5.88
2023-01-08T07:45:35.049Z,5.81
2023-01-08T07:46:35.078Z,5.81
2023-01-08T07:47:34.850Z,5.88
2023-01-08T07:48:34.846Z,5.87
2023-01-08T07:49:34.864Z,5.74
2023-01-08T07:50:34.826Z,5.87
2023-01-08T07:51:38.029Z,5.87
2023-01-08T07:52:34.867Z,5.83
2023-01-08T07:53:34.985Z,5.84
2023-01-08T07:54:36.677Z,5.81
2023-01-08T07:55:34.884Z,5.92
2023-01-08T07:56:37.679Z,5.84
2023-01-08T07:57:34.843Z,5.84
2023-01-08T07:58:34.989Z,5.9
2023-01-08T07:59:34.883Z,5.9
2023-01-08T08:00:35.073Z,5.9
2023-01-08T08:01:35.299Z,5.91
2023-01-08T08:02:38.047Z,5.74
2023-01-08T08:03:35.133Z,5.81
2023-01-08T08:04:34.873Z,5.83
2023-01-08T08:05:34.922Z,5.88
2023-01-08T08:06:34.891Z,5.88
2023-01-08T08:07:37.774Z,5.87
2023-01-08T08:08:34.919Z,5.9
2023-01-08T08:09:35.019Z,5.87
2023-01-08T08:10:34.931Z,5.9
2023-01-08T08:11:34.883Z,5.91
2023-01-08T08:12:34.885Z,5.9
2023-01-08T08:13:34.891Z,5.9
2023-01-08T08:14:35.023Z,5.95
2023-01-08T08:15:34.908Z,5.91
2023-01-08T08:16:35.101Z,5.94
2023-01-08T08:17:34.916Z,5.97
2023-01-08T08:18:37.935Z,6.01
2023-01-08T08:19:34.932Z,6.05
2023-01-08T08:20:34.891Z,6.07
2023-01-08T08:21:34.887Z,6.02
2023-01-08T08:22:35.021Z,6.1
2023-01-08T08:23:36.913Z,5.99
2023-01-08T08:24:34.901Z,6.07
2023-01-08T08:25:35.047Z,6.02
2023-01-08T08:26:34.917Z,6.05
2023-01-08T08:27:34.919Z,6.13
2023-01-08T08:28:34.911Z,6.1
2023-01-08T08:29:37.821Z,6.16
2023-01-08T08:30:34.766Z,6.02
2023-01-08T08:31:35.059Z,6.12
2023-01-08T08:32:34.922Z,6.12
2023-01-08T08:33:34.924Z,6.17
2023-01-08T08:34:34.938Z,6.22
2023-01-08T08:35:34.991Z,6.2
2023-01-08T08:36:34.906Z,6.19
2023-01-08T08:37:34.948Z,6.19
2023-01-08T08:38:34.934Z,6.15
2023-01-08T08:39:35.048Z,6.28
2023-01-08T08:40:38.637Z,6.28
2023-01-08T08:41:34.783Z,6.32
2023-01-08T08:42:34.940Z,6.31
2023-01-08T08:43:34.934Z,6.32
2023-01-08T08:44:34.753Z,6.32
2023-01-08T08:45:35.080Z,6.35
2023-01-08T08:46:35.085Z,6.35
2023-01-08T08:47:34.933Z,6.35
2023-01-08T08:48:34.929Z,6.44
2023-01-08T08:49:34.929Z,6.52
2023-01-08T08:50:34.960Z,6.47
2023-01-08T08:51:37.724Z,6.49
2023-01-08T08:52:34.979Z,6.44
2023-01-08T08:53:34.950Z,6.52
2023-01-08T08:54:34.969Z,6.54
2023-01-08T08:55:35.108Z,6.59
2023-01-08T08:56:35.056Z,6.57
2023-01-08T08:57:34.975Z,6.56
2023-01-08T08:58:34.959Z,6.54
2023-01-08T08:59:35.049Z,6.6
2023-01-08T09:00:34.996Z,6.67
2023-01-08T09:01:35.608Z,6.67
2023-01-08T09:02:35.819Z,6.64
2023-01-08T09:03:35.213Z,6.65
2023-01-08T09:04:34.962Z,6.77
2023-01-08T09:05:34.963Z,6.75
2023-01-08T09:06:34.967Z,6.72
2023-01-08T09:07:34.992Z,6.8
2023-01-08T09:08:34.971Z,6.83
2023-01-08T09:09:34.970Z,6.78
2023-01-08T09:10:35.044Z,6.89
2023-01-08T09:11:35.135Z,6.82
2023-01-08T09:12:35.127Z,6.83
2023-01-08T09:13:34.989Z,6.87
2023-01-08T09:14:34.975Z,6.83
2023-01-08T09:15:35.008Z,6.95
2023-01-08T09:16:35.294Z,6.95
2023-01-08T09:17:35.106Z,6.96
2023-01-08T09:18:35.000Z,7.04
2023-01-08T09:19:35.023Z,6.96
2023-01-08T09:20:34.999Z,6.97
2023-01-08T09:21:34.978Z,7.01
2023-01-08T09:22:35.060Z,7.04
2023-01-08T09:23:37.829Z,7.13
2023-01-08T09:24:34.995Z,7.1
2023-01-08T09:25:35.053Z,7.23
2023-01-08T09:26:34.976Z,7.13
2023-01-08T09:27:35.103Z,7.22
2023-01-08T09:28:35.115Z,7.25
2023-01-08T09:29:35.015Z,7.33
2023-01-08T09:30:35.061Z,7.33
2023-01-08T09:31:35.192Z,7.43
2023-01-08T09:32:35.002Z,7.5
2023-01-08T09:33:35.134Z,7.47
2023-01-08T09:34:37.998Z,7.51
2023-01-08T09:35:34.861Z,7.58
2023-01-08T09:36:34.992Z,7.58
2023-01-08T09:37:35.000Z,7.56
2023-01-08T09:38:34.855Z,7.53
2023-01-08T09:39:34.865Z,7.53
2023-01-08T09:40:35.018Z,7.62
2023-01-08T09:41:35.066Z,7.69
2023-01-08T09:42:35.081Z,7.67
2023-01-08T09:43:35.163Z,7.69
2023-01-08T09:44:35.147Z,7.69
2023-01-08T09:45:37.863Z,7.81
2023-01-08T09:46:35.253Z,7.75
2023-01-08T09:47:35.015Z,7.84
2023-01-08T09:48:35.027Z,7.9
2023-01-08T09:49:35.038Z,7.84
2023-01-08T09:50:35.023Z,7.85
2023-01-08T09:51:35.000Z,7.87
2023-01-08T09:52:35.058Z,7.88
2023-01-08T09:53:35.918Z,7.95
2023-01-08T09:54:35.026Z,8.03
2023-01-08T09:55:35.009Z,7.99
2023-01-08T09:56:37.850Z,7.98
2023-01-08T09:57:34.858Z,8.03
2023-01-08T09:58:35.022Z,8.06
2023-01-08T09:59:35.148Z,8.02
2023-01-08T10:00:35.298Z,8.03
2023-01-08T10:01:35.570Z,8.01
2023-01-08T10:02:35.588Z,8.02
2023-01-08T10:03:35.019Z,8.08
2023-01-08T10:04:35.009Z,8.02
2023-01-08T10:05:35.149Z,8.08
2023-01-08T10:06:35.044Z,7.98
2023-01-08T10:07:37.912Z,7.99
2023-01-08T10:08:36.053Z,8.02
2023-01-08T10:09:35.045Z,8.03
2023-01-08T10:10:35.067Z,8.03
2023-01-08T10:11:35.030Z,8.02
2023-01-08T10:12:35.129Z,8.05
2023-01-08T10:13:35.054Z,8.05
2023-01-08T10:14:35.045Z,8.03
2023-01-08T10:15:35.162Z,7.96
2023-01-08T10:16:36.490Z,7.98
2023-01-08T10:17:35.044Z,8.06
2023-01-08T10:18:38.045Z,8.03
2023-01-08T10:19:35.063Z,8.03
2023-01-08T10:20:35.028Z,8.05
2023-01-08T10:21:35.155Z,8.05
2023-01-08T10:22:35.053Z,8.05
2023-01-08T10:23:38.071Z,8.06
2023-01-08T10:24:35.118Z,8.01
2023-01-08T10:25:35.071Z,8.05
2023-01-08T10:26:35.055Z,8.08
2023-01-08T10:27:35.213Z,8.06
2023-01-08T10:28:34.884Z,8.05
2023-01-08T10:29:38.126Z,8.05
2023-01-08T10:30:35.061Z,7.95
2023-01-08T10:31:35.344Z,8.13
2023-01-08T10:32:35.195Z,8.14
2023-01-08T10:33:35.081Z,8.13
2023-01-08T10:34:38.076Z,8.13
2023-01-08T10:35:35.080Z,8.11
2023-01-08T10:36:35.054Z,8.11
2023-01-08T10:37:35.206Z,8.05
2023-01-08T10:38:37.904Z,8.11
2023-01-08T10:39:34.907Z,8.24
2023-01-08T10:40:35.086Z,8.14
2023-01-08T10:41:35.095Z,8.13
2023-01-08T10:42:35.065Z,8.21
2023-01-08T10:43:35.097Z,8.21
2023-01-08T10:44:35.084Z,8.16
2023-01-08T10:45:38.428Z,8.18
2023-01-08T10:46:35.107Z,8.11
2023-01-08T10:47:35.176Z,8.09
2023-01-08T10:48:35.118Z,8.18
2023-01-08T10:49:35.167Z,8.26
2023-01-08T10:50:34.926Z,8.18
2023-01-08T10:51:35.085Z,8.23
2023-01-08T10:52:35.291Z,8.21
2023-01-08T10:53:35.202Z,8.31
2023-01-08T10:54:35.094Z,8.18
2023-01-08T10:55:35.102Z,8.16
2023-01-08T10:56:38.156Z,8.28
2023-01-08T10:57:35.124Z,8.17
2023-01-08T10:58:35.081Z,8.27
2023-01-08T10:59:35.097Z,8.31
2023-01-08T11:00:35.337Z,8.27
2023-01-08T11:01:35.249Z,8.26
2023-01-08T11:02:38.051Z,8.36
2023-01-08T11:03:35.135Z,8.31
2023-01-08T11:04:35.166Z,8.28
2023-01-08T11:05:35.182Z,8.23
2023-01-08T11:06:35.170Z,8.21
2023-01-08T11:07:37.982Z,8.36
2023-01-08T11:08:35.098Z,8.31
2023-01-08T11:09:35.145Z,8.35
2023-01-08T11:10:35.117Z,8.36
2023-01-08T11:11:35.139Z,8.32
2023-01-08T11:12:35.121Z,8.38
2023-01-08T11:13:35.125Z,8.32
2023-01-08T11:14:35.136Z,8.35
2023-01-08T11:15:35.115Z,8.35
2023-01-08T11:16:35.487Z,8.39
2023-01-08T11:17:35.116Z,8.34
2023-01-08T11:18:38.236Z,8.44
2023-01-08T11:19:35.178Z,8.34
2023-01-08T11:20:34.975Z,8.27
2023-01-08T11:21:35.148Z,8.35
2023-01-08T11:22:36.160Z,8.38
2023-01-08T11:23:35.127Z,8.32
2023-01-08T11:24:35.288Z,8.38
2023-01-08T11:25:35.159Z,8.36
2023-01-08T11:26:35.152Z,8.38
2023-01-08T11:27:35.299Z,8.38
2023-01-08T11:28:35.163Z,8.42
2023-01-08T11:29:35.120Z,8.36
2023-01-08T11:30:35.153Z,8.38
2023-01-08T11:31:35.294Z,8.35
2023-01-08T11:32:35.150Z,8.32
2023-01-08T11:33:35.161Z,8.36
2023-01-08T11:34:35.022Z,8.28
2023-01-08T11:35:35.137Z,8.27
2023-01-08T11:36:35.216Z,8.34
2023-01-08T11:37:35.171Z,8.35
2023-01-08T11:38:35.143Z,8.32
2023-01-08T11:39:35.142Z,8.28
2023-01-08T11:40:35.185Z,8.39
2023-01-08T11:41:36.302Z,8.42
2023-01-08T11:42:35.172Z,8.38
2023-01-08T11:43:35.191Z,8.39
2023-01-08T11:44:35.171Z,8.38
2023-01-08T11:45:35.291Z,8.28
2023-01-08T11:46:35.197Z,8.35
2023-01-08T11:47:35.166Z,8.32
2023-01-08T11:48:35.200Z,8.26
2023-01-08T11:49:35.181Z,8.39
2023-01-08T11:50:37.981Z,8.34
2023-01-08T11:51:35.221Z,8.34
2023-01-08T11:52:35.209Z,8.32
2023-01-08T11:53:35.403Z,8.35
2023-01-08T11:54:35.173Z,8.35
2023-01-08T11:55:35.204Z,8.26
2023-01-08T11:56:35.230Z,8.23
2023-01-08T11:57:35.200Z,8.21
2023-01-08T11:58:35.171Z,8.24
2023-01-08T11:59:35.168Z,8.24
2023-01-08T12:00:35.322Z,8.26
2023-01-08T12:01:38.357Z,8.26
2023-01-08T12:02:38.622Z,8.21
2023-01-08T12:03:35.545Z,8.28
2023-01-08T12:04:35.199Z,8.26
2023-01-08T12:05:35.226Z,8.27
2023-01-08T12:06:38.599Z,8.28
2023-01-08T12:07:35.185Z,8.34
2023-01-08T12:08:35.213Z,8.38
2023-01-08T12:09:35.181Z,8.44
2023-01-08T12:10:35.192Z,8.42
2023-01-08T12:11:35.242Z,8.34
2023-01-08T12:12:38.247Z,8.49
2023-01-08T12:13:35.244Z,8.36
2023-01-08T12:14:35.187Z,8.44
2023-01-08T12:15:35.217Z,8.44
2023-01-08T12:16:35.410Z,8.44
2023-01-08T12:17:35.204Z,8.44
2023-01-08T12:18:35.210Z,8.46
2023-01-08T12:19:35.197Z,8.38
2023-01-08T12:20:35.222Z,8.45
2023-01-08T12:21:35.236Z,8.42
2023-01-08T12:22:35.253Z,8.52
2023-01-08T12:23:37.982Z,8.45
2023-01-08T12:24:35.241Z,8.46
2023-01-08T12:25:35.340Z,8.56
2023-01-08T12:26:35.246Z,8.38
2023-01-08T12:28:00.297Z,8.45
2023-01-08T12:28:35.231Z,8.39
2023-01-08T12:29:35.257Z,8.41
2023-01-08T12:30:35.208Z,8.38
2023-01-08T12:31:35.656Z,8.38
2023-01-08T12:32:35.329Z,8.42
2023-01-08T12:33:35.243Z,8.52
2023-01-08T12:34:38.064Z,8.49
2023-01-08T12:35:35.257Z,8.5
2023-01-08T12:36:35.247Z,8.5
2023-01-08T12:37:35.279Z,8.45
2023-01-08T12:38:35.379Z,8.52
2023-01-08T12:39:35.254Z,8.45
2023-01-08T12:40:35.267Z,8.46
2023-01-08T12:41:35.286Z,8.41
2023-01-08T12:42:35.273Z,8.41
2023-01-08T12:43:35.294Z,8.53
2023-01-08T12:44:35.244Z,8.52
2023-01-08T12:45:38.531Z,8.53
2023-01-08T12:46:35.267Z,8.53
2023-01-08T12:47:35.272Z,8.5
2023-01-08T12:48:35.237Z,8.46
2023-01-08T12:49:35.258Z,8.5
2023-01-08T12:50:38.361Z,8.52
2023-01-08T12:51:35.300Z,8.6
2023-01-08T12:52:35.253Z,8.6
2023-01-08T12:53:35.266Z,8.69
2023-01-08T12:54:35.428Z,8.64
2023-01-08T12:55:35.259Z,8.6
2023-01-08T12:56:38.097Z,8.63
2023-01-08T12:57:36.325Z,8.63
2023-01-08T12:58:35.283Z,8.68
2023-01-08T12:59:36.282Z,8.66
2023-01-08T13:00:35.274Z,8.68
2023-01-08T13:01:37.058Z,8.68
2023-01-08T13:02:35.789Z,8.68
2023-01-08T13:03:35.279Z,8.69
2023-01-08T13:04:35.262Z,8.69
2023-01-08T13:05:35.423Z,8.78
2023-01-08T13:06:35.306Z,8.79
2023-01-08T13:07:38.284Z,8.69
2023-01-08T13:08:35.273Z,8.77
2023-01-08T13:09:35.271Z,8.69
2023-01-08T13:10:35.287Z,8.78
2023-01-08T13:11:35.309Z,8.75
2023-01-08T13:12:38.445Z,8.75
2023-01-08T13:13:35.308Z,8.69
2023-01-08T13:14:35.282Z,8.78
2023-01-08T13:15:35.295Z,8.75
2023-01-08T13:16:35.394Z,8.78
2023-01-08T13:17:35.321Z,8.84
2023-01-08T13:18:38.090Z,8.84
2023-01-08T13:19:35.300Z,8.72
2023-01-08T13:20:35.309Z,8.81
2023-01-08T13:21:35.317Z,8.81